Time;durP1;ratioP1;P1;durP2;ratioP2;P2;SDS_P1;SDS_P2;PMS_P1;PMS_P2;Temp;Humidity;BMP_temperature;BMP_pressure;BME280_temperature;BME280_humidity;BME280_pressure;Samples;Min_cycle;Max_cycle;Signal;HPM_P1;HPM_P2
2020/12/14 00:02:07;;;;;;;106.70;49.53;;;;;;;;;;5015343;28;20030;-46
2020/12/14 00:04:33;;;;;;;68.35;40.63;;;;;;;;;;5014966;28;20072;-46
2020/12/14 00:06:59;;;;;;;74.30;40.70;;;;;;;;;;5014967;28;20065;-46
2020/12/14 00:09:26;;;;;;;63.72;36.70;;;;;;;;;;5015216;28;20026;-46
2020/12/14 00:11:52;;;;;;;82.57;46.45;;;;;;;;;;5015093;28;20045;-46
2020/12/14 00:14:18;;;;;;;85.97;45.13;;;;;;;;;;5015267;28;20060;-45
2020/12/14 00:16:44;;;;;;;69.47;40.25;;;;;;;;;;4997743;28;20041;-45
2020/12/14 00:19:11;;;;;;;97.22;41.63;;;;;;;;;;5015002;28;20026;-45
2020/12/14 00:21:37;;;;;;;61.95;39.67;;;;;;;;;;5014905;28;20080;-45
2020/12/14 00:24:03;;;;;;;83.93;38.47;;;;;;;;;;5014735;28;20083;-45
2020/12/14 00:26:29;;;;;;;88.65;42.88;;;;;;;;;;5014251;28;20024;-44
2020/12/14 00:28:56;;;;;;;64.47;36.88;;;;;;;;;;5014809;28;20141;-45
2020/12/14 00:31:22;;;;;;;76.05;30.90;;;;;;;;;;5014774;28;20093;-45
2020/12/14 00:33:48;;;;;;;65.07;34.38;;;;;;;;;;5014779;28;20033;-45
2020/12/14 00:36:15;;;;;;;98.43;45.03;;;;;;;;;;5014712;28;20076;-46
2020/12/14 00:38:42;;;;;;;64.15;34.15;;;;;;;;;;5014484;28;20076;-45
2020/12/14 00:41:10;;;;;;;96.57;35.75;;;;;;;;;;4996759;28;20030;-45
2020/12/14 00:43:37;;;;;;;80.35;41.95;;;;;;;;;;5014290;28;20423;-45
2020/12/14 00:46:03;;;;;;;75.32;42.10;;;;;;;;;;5014243;28;20030;-45
2020/12/14 00:48:29;;;;;;;73.55;40.92;;;;;;;;;;5014379;28;20186;-44
2020/12/14 00:50:55;;;;;;;66.50;38.10;;;;;;;;;;5014372;28;20025;-45
2020/12/14 00:53:22;;;;;;;69.28;37.88;;;;;;;;;;5014274;28;20096;-44
2020/12/14 00:55:48;;;;;;;93.88;40.65;;;;;;;;;;5014314;28;20033;-45
2020/12/14 00:58:14;;;;;;;83.88;45.67;;;;;;;;;;5014288;28;20080;-45
2020/12/14 01:00:41;;;;;;;80.72;43.13;;;;;;;;;;5014205;28;20050;-45
2020/12/14 01:03:07;;;;;;;76.93;39.20;;;;;;;;;;5014003;28;20423;-45
2020/12/14 01:05:33;;;;;;;70.55;40.63;;;;;;;;;;5014043;28;20413;-45
2020/12/14 01:07:59;;;;;;;66.65;36.28;;;;;;;;;;5013766;28;20064;-44
2020/12/14 01:10:25;;;;;;;75.55;36.55;;;;;;;;;;5014068;28;20018;-45
2020/12/14 01:12:52;;;;;;;82.78;44.28;;;;;;;;;;5013385;28;20060;-44
2020/12/14 01:15:18;;;;;;;103.80;36.92;;;;;;;;;;5014034;28;20433;-45
2020/12/14 01:17:44;;;;;;;66.38;36.17;;;;;;;;;;5013885;28;20404;-45
2020/12/14 01:20:13;;;;;;;62.63;39.15;;;;;;;;;;5013975;28;20040;-44
2020/12/14 01:22:40;;;;;;;73.35;33.13;;;;;;;;;;5013650;28;20435;-44
2020/12/14 01:25:06;;;;;;;78.30;35.33;;;;;;;;;;5013913;28;20022;-45
2020/12/14 01:27:33;;;;;;;73.97;39.35;;;;;;;;;;5013519;28;20025;-44
2020/12/14 01:29:59;;;;;;;65.30;37.58;;;;;;;;;;5013524;28;20022;-44
2020/12/14 01:32:25;;;;;;;67.45;38.05;;;;;;;;;;5013786;28;20428;-44
2020/12/14 01:34:51;;;;;;;51.47;37.88;;;;;;;;;;5013546;28;20033;-44
2020/12/14 01:37:18;;;;;;;76.15;38.10;;;;;;;;;;5013480;28;20044;-44
2020/12/14 01:39:44;;;;;;;79.05;36.38;;;;;;;;;;5013488;28;20104;-45
2020/12/14 01:42:10;;;;;;;73.60;34.75;;;;;;;;;;5013427;28;20030;-45
2020/12/14 01:44:36;;;;;;;56.22;33.35;;;;;;;;;;5013405;28;20129;-44
2020/12/14 01:47:03;;;;;;;60.67;33.47;;;;;;;;;;5013558;28;20029;-44
2020/12/14 01:49:32;;;;;;;72.97;44.35;;;;;;;;;;5013488;28;20783;-44
2020/12/14 01:51:59;;;;;;;82.32;40.00;;;;;;;;;;5013032;28;20025;-44
2020/12/14 01:54:36;;;;;;;57.08;34.03;;;;;;;;;;5013181;28;20054;-44
2020/12/14 01:57:02;;;;;;;77.55;37.85;;;;;;;;;;5012817;28;20030;-45
2020/12/14 01:59:29;;;;;;;61.75;36.28;;;;;;;;;;5012771;28;20022;-44
2020/12/14 02:01:55;;;;;;;70.68;33.55;;;;;;;;;;5013191;28;20030;-44
2020/12/14 02:04:21;;;;;;;68.18;39.40;;;;;;;;;;5012790;28;20026;-44
2020/12/14 02:06:48;;;;;;;92.80;49.10;;;;;;;;;;5012953;28;20022;-44
2020/12/14 02:09:14;;;;;;;60.88;37.42;;;;;;;;;;5012842;28;20056;-44
2020/12/14 02:11:40;;;;;;;63.45;38.42;;;;;;;;;;5012926;28;20024;-44
2020/12/14 02:14:06;;;;;;;83.78;34.83;;;;;;;;;;5012776;28;20023;-44
2020/12/14 02:16:33;;;;;;;76.07;41.47;;;;;;;;;;5012766;28;20025;-44
2020/12/14 02:18:59;;;;;;;66.97;34.90;;;;;;;;;;5012741;28;20091;-44
2020/12/14 02:21:25;;;;;;;69.60;37.83;;;;;;;;;;5012681;28;20105;-44
2020/12/14 02:23:51;;;;;;;57.47;33.90;;;;;;;;;;5012549;28;20088;-44
2020/12/14 02:26:18;;;;;;;58.17;34.22;;;;;;;;;;5012571;28;20021;-44
2020/12/14 02:28:44;;;;;;;68.18;34.33;;;;;;;;;;5012450;28;20026;-44
2020/12/14 02:31:10;;;;;;;67.90;37.67;;;;;;;;;;5012524;28;20069;-44
2020/12/14 02:33:37;;;;;;;61.47;34.53;;;;;;;;;;5012585;28;20026;-44
2020/12/14 02:36:03;;;;;;;61.95;33.95;;;;;;;;;;5012519;28;20053;-44
2020/12/14 02:38:29;;;;;;;70.30;34.75;;;;;;;;;;5012614;28;20026;-44
2020/12/14 02:40:55;;;;;;;67.40;34.75;;;;;;;;;;5012507;28;20525;-44
2020/12/14 02:43:22;;;;;;;64.05;34.95;;;;;;;;;;5012208;28;20034;-44
2020/12/14 02:45:48;;;;;;;74.60;37.50;;;;;;;;;;5012267;28;20025;-44
2020/12/14 02:48:14;;;;;;;61.88;38.47;;;;;;;;;;5012386;28;20093;-44
2020/12/14 02:50:40;;;;;;;68.25;36.15;;;;;;;;;;5012240;28;20037;-44
2020/12/14 02:53:07;;;;;;;50.28;29.77;;;;;;;;;;5012210;28;20018;-44
2020/12/14 02:55:33;;;;;;;56.88;32.42;;;;;;;;;;5012265;28;20032;-44
2020/12/14 02:57:59;;;;;;;52.28;34.20;;;;;;;;;;5012024;28;20022;-44
2020/12/14 03:00:25;;;;;;;60.38;33.72;;;;;;;;;;5011992;28;20026;-44
2020/12/14 03:02:52;;;;;;;46.28;37.55;;;;;;;;;;5012001;28;20033;-44
2020/12/14 03:05:18;;;;;;;59.85;35.40;;;;;;;;;;5012116;28;20064;-44
2020/12/14 03:07:44;;;;;;;59.22;37.63;;;;;;;;;;5011951;28;20076;-45
2020/12/14 03:10:11;;;;;;;70.78;32.42;;;;;;;;;;5011887;28;20045;-44
2020/12/14 03:12:37;;;;;;;53.17;34.13;;;;;;;;;;5012066;28;20033;-44
2020/12/14 03:15:03;;;;;;;67.25;35.17;;;;;;;;;;5011969;28;20060;-45
2020/12/14 03:17:29;;;;;;;49.85;34.17;;;;;;;;;;5012024;28;20492;-45
2020/12/14 03:19:56;;;;;;;55.30;36.05;;;;;;;;;;5011885;28;20391;-45
2020/12/14 03:22:22;;;;;;;53.38;33.33;;;;;;;;;;5011879;28;20018;-45
2020/12/14 03:24:48;;;;;;;80.93;38.67;;;;;;;;;;5011881;28;20029;-44
2020/12/14 03:27:14;;;;;;;53.88;32.95;;;;;;;;;;5012025;28;20025;-44
2020/12/14 03:29:41;;;;;;;72.63;37.97;;;;;;;;;;5011901;28;20022;-44
2020/12/14 03:32:07;;;;;;;50.08;30.38;;;;;;;;;;5011737;28;20022;-44
2020/12/14 03:34:33;;;;;;;90.95;41.95;;;;;;;;;;5011843;28;20053;-44
2020/12/14 03:36:59;;;;;;;52.03;34.20;;;;;;;;;;5011746;28;20033;-44
2020/12/14 03:39:26;;;;;;;54.83;36.75;;;;;;;;;;5011816;28;20029;-44
2020/12/14 03:41:52;;;;;;;62.05;31.92;;;;;;;;;;5011763;28;20037;-45
2020/12/14 03:44:18;;;;;;;56.67;33.17;;;;;;;;;;5011846;28;20026;-44
2020/12/14 03:46:44;;;;;;;57.40;36.20;;;;;;;;;;5011801;28;20030;-44
2020/12/14 03:49:11;;;;;;;51.97;34.38;;;;;;;;;;5011484;28;20018;-45
2020/12/14 03:51:37;;;;;;;70.35;32.20;;;;;;;;;;5011345;28;20022;-44
2020/12/14 03:54:03;;;;;;;54.78;32.53;;;;;;;;;;5011431;28;20053;-44
2020/12/14 03:56:29;;;;;;;61.85;33.03;;;;;;;;;;4993749;28;20455;-44
2020/12/14 03:58:56;;;;;;;66.53;38.92;;;;;;;;;;5011548;28;20029;-45
2020/12/14 04:01:23;;;;;;;56.72;36.03;;;;;;;;;;5011526;28;20487;-44
2020/12/14 04:03:49;;;;;;;63.47;34.40;;;;;;;;;;5011325;28;20026;-44
2020/12/14 04:06:19;;;;;;;51.72;35.13;;;;;;;;;;5011478;28;20026;-45
2020/12/14 04:08:46;;;;;;;51.53;33.00;;;;;;;;;;5011086;28;20408;-44
2020/12/14 04:11:12;;;;;;;69.38;39.40;;;;;;;;;;5011351;28;20436;-45
2020/12/14 04:13:39;;;;;;;65.60;33.20;;;;;;;;;;5011546;28;20541;-45
2020/12/14 04:16:05;;;;;;;93.38;36.47;;;;;;;;;;5011274;28;20084;-44
2020/12/14 04:18:31;;;;;;;55.10;35.70;;;;;;;;;;5011254;28;20025;-45
2020/12/14 04:20:58;;;;;;;55.10;36.83;;;;;;;;;;5012146;28;20072;-44
2020/12/14 04:23:24;;;;;;;61.25;33.00;;;;;;;;;;5014791;28;20030;-44
2020/12/14 04:25:50;;;;;;;58.65;31.98;;;;;;;;;;5014772;28;20022;-46
2020/12/14 04:28:16;;;;;;;66.35;37.42;;;;;;;;;;5014789;28;20033;-45
2020/12/14 04:30:43;;;;;;;68.63;34.58;;;;;;;;;;5014713;28;20025;-44
2020/12/14 04:33:09;;;;;;;79.43;38.67;;;;;;;;;;5014684;28;20383;-45
2020/12/14 04:35:35;;;;;;;74.97;42.08;;;;;;;;;;5014625;28;20029;-44
2020/12/14 04:38:01;;;;;;;63.85;32.42;;;;;;;;;;5014643;28;20026;-45
2020/12/14 04:40:28;;;;;;;56.92;34.45;;;;;;;;;;5014587;28;20026;-45
2020/12/14 04:42:55;;;;;;;49.03;31.42;;;;;;;;;;5014355;28;20429;-45
2020/12/14 04:45:22;;;;;;;64.68;41.10;;;;;;;;;;5014588;28;20089;-44
2020/12/14 04:47:54;;;;;;;62.10;30.67;;;;;;;;;;5014108;28;20054;-45
2020/12/14 04:50:21;;;;;;;51.10;32.30;;;;;;;;;;5013695;28;20084;-44
2020/12/14 04:52:49;;;;;;;82.15;41.25;;;;;;;;;;5013284;28;20054;-44
2020/12/14 04:55:18;;;;;;;79.35;37.05;;;;;;;;;;5012766;28;20022;-44
2020/12/14 04:57:46;;;;;;;61.27;34.80;;;;;;;;;;5013028;28;20530;-44
2020/12/14 05:00:12;;;;;;;59.65;37.50;;;;;;;;;;5012819;28;20084;-44
2020/12/14 05:02:38;;;;;;;64.50;37.45;;;;;;;;;;5012782;28;20113;-44
2020/12/14 05:05:05;;;;;;;53.90;35.47;;;;;;;;;;4995229;28;20050;-44
2020/12/14 05:07:38;;;;;;;54.83;34.20;;;;;;;;;;5012813;28;20057;-44
2020/12/14 05:10:04;;;;;;;76.63;38.20;;;;;;;;;;5011008;28;20511;-44
2020/12/14 05:12:30;;;;;;;52.00;35.40;;;;;;;;;;5012688;28;20512;-44
2020/12/14 05:15:00;;;;;;;49.28;36.50;;;;;;;;;;5012788;28;20057;-44
2020/12/14 05:17:26;;;;;;;47.25;32.80;;;;;;;;;;5012728;28;20025;-44
2020/12/14 05:19:53;;;;;;;52.90;35.70;;;;;;;;;;5012502;28;20053;-44
2020/12/14 05:22:19;;;;;;;56.38;34.80;;;;;;;;;;5012437;28;20026;-44
2020/12/14 05:24:49;;;;;;;62.33;38.30;;;;;;;;;;5012479;28;20036;-44
2020/12/14 05:27:33;;;;;;;59.45;35.50;;;;;;;;;;5013520;28;20495;-44
2020/12/14 05:29:59;;;;;;;49.90;34.33;;;;;;;;;;5014011;28;20101;-44
2020/12/14 05:32:26;;;;;;;60.28;37.38;;;;;;;;;;5012667;28;20101;-44
2020/12/14 05:34:52;;;;;;;58.90;36.53;;;;;;;;;;5013581;28;20022;-44
2020/12/14 05:37:18;;;;;;;80.55;43.33;;;;;;;;;;5013522;28;20026;-44
2020/12/14 05:39:45;;;;;;;75.47;41.72;;;;;;;;;;5013447;28;20030;-44
2020/12/14 05:42:16;;;;;;;61.45;34.47;;;;;;;;;;5013404;28;20037;-44
2020/12/14 05:44:43;;;;;;;71.18;39.08;;;;;;;;;;5013349;28;20021;-44
2020/12/14 05:47:23;;;;;;;71.47;43.13;;;;;;;;;;4995999;28;20555;-44
2020/12/14 05:49:50;;;;;;;72.40;40.17;;;;;;;;;;5013264;28;20036;-44
2020/12/14 05:52:18;;;;;;;61.08;35.63;;;;;;;;;;5013204;28;20097;-44
2020/12/14 05:54:50;;;;;;;63.63;37.72;;;;;;;;;;5013227;28;20033;-44
2020/12/14 05:57:23;;;;;;;68.70;41.50;;;;;;;;;;5013153;28;20477;-44
2020/12/14 05:59:49;;;;;;;80.93;35.20;;;;;;;;;;5012960;28;20033;-45
2020/12/14 06:02:16;;;;;;;82.00;40.90;;;;;;;;;;5013165;28;20026;-44
2020/12/14 06:04:42;;;;;;;74.60;44.45;;;;;;;;;;5012849;28;20097;-44
2020/12/14 06:07:10;;;;;;;66.97;39.83;;;;;;;;;;5012803;28;20046;-44
2020/12/14 06:09:37;;;;;;;113.70;44.17;;;;;;;;;;5013016;28;20022;-44
2020/12/14 06:12:11;;;;;;;73.22;37.80;;;;;;;;;;5012852;28;20022;-44
2020/12/14 06:14:41;;;;;;;79.43;38.92;;;;;;;;;;5012955;28;20036;-44
2020/12/14 06:17:11;;;;;;;100.47;52.70;;;;;;;;;;5012919;28;20046;-43
2020/12/14 06:19:38;;;;;;;88.57;45.15;;;;;;;;;;5012688;28;20034;-44
2020/12/14 06:22:07;;;;;;;86.47;41.95;;;;;;;;;;5012722;28;20040;-44
2020/12/14 06:24:33;;;;;;;60.20;35.92;;;;;;;;;;5012570;28;20030;-45
2020/12/14 06:27:00;;;;;;;99.57;46.55;;;;;;;;;;5012765;28;20086;-45
2020/12/14 06:29:30;;;;;;;95.05;48.42;;;;;;;;;;5012568;28;20018;-45
2020/12/14 06:31:56;;;;;;;74.10;41.40;;;;;;;;;;5012764;28;20078;-45
2020/12/14 06:34:31;;;;;;;97.82;42.20;;;;;;;;;;5012567;28;20025;-45
2020/12/14 06:36:58;;;;;;;112.70;47.90;;;;;;;;;;5012356;28;20032;-44
2020/12/14 06:39:31;;;;;;;95.45;45.08;;;;;;;;;;5012440;28;20026;-45
2020/12/14 06:42:20;;;;;;;84.05;39.97;;;;;;;;;;5012376;28;20037;-45
2020/12/14 06:44:47;;;;;;;79.13;38.00;;;;;;;;;;5011777;28;20036;-45
2020/12/14 06:47:16;;;;;;;104.18;42.78;;;;;;;;;;5012255;28;20073;-45
2020/12/14 06:49:44;;;;;;;78.68;42.25;;;;;;;;;;5012183;28;20025;-45
2020/12/14 06:52:10;;;;;;;67.45;37.50;;;;;;;;;;5012064;28;20349;-45
2020/12/14 06:54:47;;;;;;;69.85;38.92;;;;;;;;;;5012244;28;20046;-45
2020/12/14 06:57:14;;;;;;;73.72;38.58;;;;;;;;;;5012228;28;20435;-45
2020/12/14 06:59:41;;;;;;;61.42;38.03;;;;;;;;;;5012163;28;20029;-45
2020/12/14 07:02:09;;;;;;;71.20;45.05;;;;;;;;;;5012000;28;20036;-45
2020/12/14 07:04:39;;;;;;;71.15;38.00;;;;;;;;;;5011914;28;20464;-45
2020/12/14 07:07:06;;;;;;;73.80;45.72;;;;;;;;;;5012061;28;20558;-45
2020/12/14 07:09:39;;;;;;;68.28;37.75;;;;;;;;;;5011966;28;20033;-45
2020/12/14 07:12:11;;;;;;;96.32;45.40;;;;;;;;;;5012022;28;20022;-45
2020/12/14 07:14:48;;;;;;;65.13;41.67;;;;;;;;;;5011902;28;20054;-45
2020/12/14 07:17:32;;;;;;;83.80;42.30;;;;;;;;;;5011944;28;20030;-45
2020/12/14 07:19:59;;;;;;;76.00;46.88;;;;;;;;;;5011798;28;20041;-45
2020/12/14 07:22:34;;;;;;;84.60;46.58;;;;;;;;;;5011903;28;20029;-45
2020/12/14 07:25:06;;;;;;;68.40;40.97;;;;;;;;;;5011791;28;20049;-45
2020/12/14 07:27:33;;;;;;;84.20;45.00;;;;;;;;;;5011736;28;20048;-45
2020/12/14 07:30:04;;;;;;;77.22;46.35;;;;;;;;;;5011782;28;20097;-45
2020/12/14 07:32:31;;;;;;;72.25;33.85;;;;;;;;;;5011957;28;20037;-45
2020/12/14 07:34:57;;;;;;;76.93;38.20;;;;;;;;;;5012051;28;20037;-45
2020/12/14 07:37:23;;;;;;;74.30;42.30;;;;;;;;;;5011941;28;20765;-45
2020/12/14 07:39:50;;;;;;;86.32;43.60;;;;;;;;;;5011960;28;20030;-45
2020/12/14 07:42:23;;;;;;;65.35;38.22;;;;;;;;;;5011837;28;20054;-45
2020/12/14 07:44:50;;;;;;;79.63;41.67;;;;;;;;;;5011441;28;20034;-44
2020/12/14 07:47:20;;;;;;;114.97;52.70;;;;;;;;;;5011829;28;20093;-45
2020/12/14 07:49:46;;;;;;;69.45;44.28;;;;;;;;;;5011606;28;20025;-45
2020/12/14 07:52:25;;;;;;;86.85;44.33;;;;;;;;;;5011787;28;20041;-45
2020/12/14 07:55:01;;;;;;;84.30;48.38;;;;;;;;;;5011388;28;20376;-45
2020/12/14 07:57:34;;;;;;;76.95;42.50;;;;;;;;;;5014812;28;20564;-45
2020/12/14 08:00:00;;;;;;;80.15;46.03;;;;;;;;;;5015428;28;20433;-45
2020/12/14 08:02:29;;;;;;;86.00;41.15;;;;;;;;;;5015281;28;20101;-45
2020/12/14 08:05:03;;;;;;;86.30;44.53;;;;;;;;;;5015068;28;20030;-45
2020/12/14 08:07:35;;;;;;;60.78;37.95;;;;;;;;;;5015057;28;20050;-45
2020/12/14 08:10:02;;;;;;;108.90;50.08;;;;;;;;;;5015230;28;20506;-45
2020/12/14 08:12:28;;;;;;;80.15;50.47;;;;;;;;;;5015086;28;20031;-45
2020/12/14 08:14:55;;;;;;;68.03;44.67;;;;;;;;;;5015064;28;20076;-45
2020/12/14 08:17:21;;;;;;;64.90;40.63;;;;;;;;;;5015060;28;20034;-45
2020/12/14 08:19:47;;;;;;;104.20;46.58;;;;;;;;;;5015183;28;20472;-45
2020/12/14 08:22:14;;;;;;;84.20;44.40;;;;;;;;;;5015020;28;20022;-45
2020/12/14 08:24:41;;;;;;;78.45;39.28;;;;;;;;;;5014994;28;20026;-45
2020/12/14 08:27:09;;;;;;;91.80;43.88;;;;;;;;;;5014890;28;20030;-45
2020/12/14 08:29:36;;;;;;;82.72;44.42;;;;;;;;;;5014898;28;20442;-45
2020/12/14 08:32:03;;;;;;;62.45;35.28;;;;;;;;;;5014976;28;20053;-45
2020/12/14 08:34:37;;;;;;;62.47;40.55;;;;;;;;;;5014827;28;20468;-45
2020/12/14 08:37:04;;;;;;;87.03;44.10;;;;;;;;;;5014480;28;20030;-45
2020/12/14 08:39:31;;;;;;;96.63;53.35;;;;;;;;;;5014494;28;20396;-45
2020/12/14 08:42:08;;;;;;;90.07;46.72;;;;;;;;;;5014639;28;20026;-45
2020/12/14 08:44:34;;;;;;;64.38;42.28;;;;;;;;;;5014045;28;20380;-45
2020/12/14 08:47:01;;;;;;;91.50;48.40;;;;;;;;;;5014386;28;20045;-45
2020/12/14 08:49:30;;;;;;;86.00;44.75;;;;;;;;;;5014462;28;20025;-44
2020/12/14 08:51:57;;;;;;;70.95;42.78;;;;;;;;;;5014415;28;20798;-45
2020/12/14 08:54:26;;;;;;;78.75;46.63;;;;;;;;;;5014424;28;20197;-45
2020/12/14 08:56:52;;;;;;;86.25;46.10;;;;;;;;;;4996658;28;20387;-45
2020/12/14 08:59:19;;;;;;;65.63;42.97;;;;;;;;;;5014375;28;20022;-45
2020/12/14 09:02:04;;;;;;;82.57;46.63;;;;;;;;;;5014348;28;20037;-45
2020/12/14 09:04:39;;;;;;;77.43;43.63;;;;;;;;;;5013908;28;20113;-45
2020/12/14 09:07:06;;;;;;;78.70;41.70;;;;;;;;;;5013884;28;20050;-45
2020/12/14 09:09:38;;;;;;;87.03;41.25;;;;;;;;;;5013974;28;20026;-45
2020/12/14 09:12:12;;;;;;;107.05;46.75;;;;;;;;;;5014086;28;20021;-45
2020/12/14 09:14:38;;;;;;;79.07;46.33;;;;;;;;;;5013933;28;20554;-44
2020/12/14 09:17:05;;;;;;;78.70;46.13;;;;;;;;;;5014055;28;20160;-45
2020/12/14 09:19:33;;;;;;;85.90;42.13;;;;;;;;;;5013779;28;20037;-45
2020/12/14 09:21:59;;;;;;;70.55;45.22;;;;;;;;;;5013944;28;20104;-45
2020/12/14 09:24:33;;;;;;;91.43;42.28;;;;;;;;;;5013501;28;20060;-45
2020/12/14 09:27:07;;;;;;;75.28;38.13;;;;;;;;;;5013372;28;20559;-45
2020/12/14 09:29:33;;;;;;;93.85;45.88;;;;;;;;;;4994106;28;20034;-45
2020/12/14 09:32:01;;;;;;;88.80;39.78;;;;;;;;;;4994137;28;20042;-45
2020/12/14 09:34:27;;;;;;;93.70;41.95;;;;;;;;;;4993701;28;20029;-45
2020/12/14 09:36:54;;;;;;;70.95;38.90;;;;;;;;;;4993798;28;20428;-45
2020/12/14 09:39:22;;;;;;;79.55;42.60;;;;;;;;;;4993930;28;20030;-45
2020/12/14 09:41:48;;;;;;;82.30;43.33;;;;;;;;;;4993705;28;20030;-45
2020/12/14 09:44:14;;;;;;;74.03;44.45;;;;;;;;;;4993856;28;20022;-45
2020/12/14 09:46:41;;;;;;;87.50;42.72;;;;;;;;;;4993819;28;20163;-45
2020/12/14 09:49:07;;;;;;;95.47;40.53;;;;;;;;;;4993680;28;20094;-45
2020/12/14 09:51:35;;;;;;;98.22;47.03;;;;;;;;;;4993644;28;20030;-44
2020/12/14 09:54:02;;;;;;;87.97;45.53;;;;;;;;;;4993653;28;20022;-44
2020/12/14 09:56:28;;;;;;;74.85;44.95;;;;;;;;;;4993608;28;20113;-44
2020/12/14 09:58:55;;;;;;;83.68;44.38;;;;;;;;;;4993760;28;20500;-44
2020/12/14 10:01:21;;;;;;;75.43;43.50;;;;;;;;;;4993333;28;20054;-45
2020/12/14 10:03:47;;;;;;;72.68;46.00;;;;;;;;;;4993383;28;20106;-45
2020/12/14 10:06:14;;;;;;;106.50;49.65;;;;;;;;;;4993463;28;20030;-45
2020/12/14 10:08:41;;;;;;;77.50;41.33;;;;;;;;;;4993251;28;20459;-46
2020/12/14 10:11:07;;;;;;;77.82;41.15;;;;;;;;;;4993311;28;20026;-46
2020/12/14 10:13:34;;;;;;;84.88;44.65;;;;;;;;;;4993090;28;20480;-46
2020/12/14 10:16:00;;;;;;;62.65;34.90;;;;;;;;;;4993264;28;20434;-45
2020/12/14 10:18:27;;;;;;;94.18;46.47;;;;;;;;;;4992751;28;20022;-45
2020/12/14 10:20:53;;;;;;;81.40;45.60;;;;;;;;;;4993134;28;20072;-45
2020/12/14 10:23:19;;;;;;;79.93;37.03;;;;;;;;;;4993179;28;20026;-45
2020/12/14 10:25:46;;;;;;;57.03;35.95;;;;;;;;;;5005346;28;20037;-46
2020/12/14 10:28:12;;;;;;;73.88;39.88;;;;;;;;;;5013857;28;20041;-47
2020/12/14 10:30:39;;;;;;;87.13;43.70;;;;;;;;;;5013230;28;20068;-46
2020/12/14 10:33:05;;;;;;;96.57;43.00;;;;;;;;;;5012162;28;20029;-48
2020/12/14 10:35:32;;;;;;;79.07;41.22;;;;;;;;;;5012436;28;20025;-45
2020/12/14 10:37:58;;;;;;;72.15;39.75;;;;;;;;;;5012071;28;20030;-45
2020/12/14 10:40:25;;;;;;;98.22;41.00;;;;;;;;;;4998026;28;20022;-45
2020/12/14 10:42:52;;;;;;;91.60;44.95;;;;;;;;;;4992846;28;20022;-46
2020/12/14 10:45:18;;;;;;;54.97;36.20;;;;;;;;;;4992713;28;20476;-45
2020/12/14 10:47:45;;;;;;;79.57;43.33;;;;;;;;;;4992870;28;20046;-45
2020/12/14 10:50:12;;;;;;;74.78;43.38;;;;;;;;;;4992640;28;20036;-45
2020/12/14 10:52:38;;;;;;;63.17;39.08;;;;;;;;;;4975124;28;20022;-46
2020/12/14 10:55:05;;;;;;;83.13;42.60;;;;;;;;;;5008850;28;20030;-46
2020/12/14 10:57:31;;;;;;;103.22;43.85;;;;;;;;;;5012213;28;20025;-45
2020/12/14 11:00:06;;;;;;;74.93;39.35;;;;;;;;;;5011302;28;20030;-45
2020/12/14 11:02:33;;;;;;;86.90;45.60;;;;;;;;;;4997854;28;20034;-45
2020/12/14 11:05:00;;;;;;;77.20;40.92;;;;;;;;;;5011669;28;20026;-48
2020/12/14 11:07:29;;;;;;;90.45;42.63;;;;;;;;;;5011730;28;20041;-48
2020/12/14 11:09:55;;;;;;;76.95;44.17;;;;;;;;;;5012099;28;20033;-49
2020/12/14 11:12:21;;;;;;;100.32;44.58;;;;;;;;;;5012004;28;20026;-49
2020/12/14 11:14:48;;;;;;;76.25;41.63;;;;;;;;;;5011586;28;20088;-49
2020/12/14 11:17:14;;;;;;;79.07;43.28;;;;;;;;;;5011892;28;20026;-49
2020/12/14 11:19:41;;;;;;;59.65;35.70;;;;;;;;;;5012074;28;20033;-49
2020/12/14 11:22:07;;;;;;;79.95;43.55;;;;;;;;;;5011682;28;20503;-49
2020/12/14 11:24:33;;;;;;;76.50;43.92;;;;;;;;;;5011958;28;20034;-48
2020/12/14 11:27:00;;;;;;;78.32;40.55;;;;;;;;;;5011798;28;20096;-45
2020/12/14 11:29:27;;;;;;;63.53;40.53;;;;;;;;;;5011820;28;20025;-45
2020/12/14 11:31:54;;;;;;;81.43;45.90;;;;;;;;;;4996701;28;20056;-44
2020/12/14 11:34:21;;;;;;;77.90;41.25;;;;;;;;;;5015733;28;20052;-45
2020/12/14 11:36:47;;;;;;;81.85;41.20;;;;;;;;;;5015571;28;20503;-45
2020/12/14 11:39:13;;;;;;;64.55;42.35;;;;;;;;;;5015699;28;20105;-45
2020/12/14 11:41:40;;;;;;;75.07;36.85;;;;;;;;;;5015565;28;20507;-45
2020/12/14 11:44:06;;;;;;;70.65;42.42;;;;;;;;;;5015150;28;20030;-45
2020/12/14 11:46:32;;;;;;;91.38;38.10;;;;;;;;;;5015197;28;20483;-46
2020/12/14 11:48:59;;;;;;;85.45;42.75;;;;;;;;;;5015480;28;20026;-46
2020/12/14 11:51:25;;;;;;;74.18;39.92;;;;;;;;;;5015597;28;20026;-45
2020/12/14 11:53:51;;;;;;;55.83;37.17;;;;;;;;;;5015374;28;20022;-45
2020/12/14 11:56:18;;;;;;;66.95;40.50;;;;;;;;;;5015465;28;20032;-44
2020/12/14 11:58:44;;;;;;;90.03;42.25;;;;;;;;;;5015296;28;20029;-44
2020/12/14 12:01:10;;;;;;;72.00;40.95;;;;;;;;;;5014701;28;20037;-44
2020/12/14 12:03:36;;;;;;;84.53;40.22;;;;;;;;;;5015538;28;20034;-45
2020/12/14 12:06:04;;;;;;;67.20;37.75;;;;;;;;;;5002825;28;20050;-44
2020/12/14 12:08:30;;;;;;;49.85;32.40;;;;;;;;;;4995140;28;20238;-44
2020/12/14 12:10:57;;;;;;;76.53;43.63;;;;;;;;;;4996669;28;20030;-45
2020/12/14 12:13:23;;;;;;;78.00;39.60;;;;;;;;;;5014837;28;20403;-44
2020/12/14 12:15:49;;;;;;;63.72;37.60;;;;;;;;;;5014775;28;20034;-45
2020/12/14 12:18:15;;;;;;;72.32;42.13;;;;;;;;;;5015245;28;20041;-46
2020/12/14 12:20:42;;;;;;;71.35;40.80;;;;;;;;;;5015038;28;20028;-43
2020/12/14 12:23:08;;;;;;;70.20;40.20;;;;;;;;;;5014791;28;20084;-44
2020/12/14 12:25:34;;;;;;;65.55;38.88;;;;;;;;;;5014423;28;20018;-43
2020/12/14 12:28:01;;;;;;;60.65;37.65;;;;;;;;;;5014717;28;20048;-46
2020/12/14 12:30:33;;;;;;;66.97;41.47;;;;;;;;;;5014835;28;20476;-50
2020/12/14 12:33:00;;;;;;;90.35;42.67;;;;;;;;;;5014694;28;20077;-47
2020/12/14 12:35:26;;;;;;;73.03;38.53;;;;;;;;;;5014870;28;20029;-44
2020/12/14 12:37:52;;;;;;;59.83;34.55;;;;;;;;;;5014830;28;20026;-46
2020/12/14 12:40:18;;;;;;;70.65;38.40;;;;;;;;;;5014944;28;20032;-44
2020/12/14 12:42:45;;;;;;;64.65;38.55;;;;;;;;;;5014185;28;20028;-47
2020/12/14 12:45:11;;;;;;;71.53;40.92;;;;;;;;;;5014455;28;20476;-48
2020/12/14 12:47:37;;;;;;;78.80;42.30;;;;;;;;;;5014698;28;20506;-45
2020/12/14 12:50:03;;;;;;;69.72;40.17;;;;;;;;;;5014477;28;20033;-46
2020/12/14 12:52:30;;;;;;;72.30;38.50;;;;;;;;;;5014435;28;20041;-46
2020/12/14 12:54:56;;;;;;;63.88;38.53;;;;;;;;;;5014279;28;20033;-46
2020/12/14 12:57:22;;;;;;;67.45;38.22;;;;;;;;;;5014299;28;20041;-44
2020/12/14 12:59:49;;;;;;;56.50;37.75;;;;;;;;;;5014355;28;20515;-44
2020/12/14 13:02:15;;;;;;;63.35;35.90;;;;;;;;;;5013940;28;20491;-44
2020/12/14 13:04:41;;;;;;;85.25;42.60;;;;;;;;;;5012939;28;20021;-44
2020/12/14 13:07:08;;;;;;;73.55;37.70;;;;;;;;;;4994524;28;20045;-44
2020/12/14 13:09:34;;;;;;;61.75;40.25;;;;;;;;;;4994359;28;20038;-44
2020/12/14 13:12:01;;;;;;;87.55;41.15;;;;;;;;;;4994387;28;20030;-45
2020/12/14 13:14:27;;;;;;;60.17;32.88;;;;;;;;;;4994299;28;20080;-46
2020/12/14 13:16:53;;;;;;;60.65;33.95;;;;;;;;;;4994451;28;20030;-50
2020/12/14 13:19:20;;;;;;;62.70;37.05;;;;;;;;;;4994239;28;20492;-49
2020/12/14 13:21:46;;;;;;;78.25;38.47;;;;;;;;;;4994366;28;20043;-47
2020/12/14 13:24:13;;;;;;;81.57;41.53;;;;;;;;;;4994196;28;20049;-46
2020/12/14 13:26:39;;;;;;;52.47;36.13;;;;;;;;;;4994020;28;20018;-46
2020/12/14 13:29:06;;;;;;;45.40;32.78;;;;;;;;;;4994234;28;20571;-46
2020/12/14 13:31:32;;;;;;;55.53;33.40;;;;;;;;;;4994205;28;20029;-45
2020/12/14 13:34:00;;;;;;;76.55;39.30;;;;;;;;;;4993965;28;20035;-46
2020/12/14 13:36:27;;;;;;;70.47;41.78;;;;;;;;;;4993984;28;20061;-46
2020/12/14 13:38:53;;;;;;;56.65;37.58;;;;;;;;;;4993852;28;20031;-46
2020/12/14 13:41:20;;;;;;;46.65;33.75;;;;;;;;;;4993955;28;20026;-48
2020/12/14 13:43:46;;;;;;;59.05;35.85;;;;;;;;;;4993845;28;20089;-50
2020/12/14 13:46:12;;;;;;;55.33;34.13;;;;;;;;;;4993670;28;20046;-47
2020/12/14 13:48:40;;;;;;;64.72;33.75;;;;;;;;;;4993598;28;20033;-46
2020/12/14 13:51:06;;;;;;;68.97;36.05;;;;;;;;;;4993773;28;20069;-47
2020/12/14 13:53:33;;;;;;;60.40;36.25;;;;;;;;;;4992672;28;20093;-43
2020/12/14 13:55:59;;;;;;;59.22;34.33;;;;;;;;;;4993736;28;20481;-45
2020/12/14 13:58:26;;;;;;;55.50;37.63;;;;;;;;;;4993606;28;20026;-46
2020/12/14 14:00:53;;;;;;;62.90;39.97;;;;;;;;;;4996085;28;20144;-45
2020/12/14 14:03:19;;;;;;;68.20;40.33;;;;;;;;;;5013125;28;20045;-45
2020/12/14 14:05:45;;;;;;;61.00;34.67;;;;;;;;;;5012935;28;20017;-44
2020/12/14 14:08:12;;;;;;;60.28;37.58;;;;;;;;;;4995051;28;20377;-47
2020/12/14 14:10:39;;;;;;;72.28;37.08;;;;;;;;;;5012958;28;20018;-46
2020/12/14 14:13:05;;;;;;;64.57;37.05;;;;;;;;;;5012828;28;20022;-46
2020/12/14 14:15:32;;;;;;;65.25;39.00;;;;;;;;;;5012822;28;20446;-46
2020/12/14 14:17:58;;;;;;;69.70;42.88;;;;;;;;;;5012873;28;20065;-46